Time;durP1;ratioP1;P1;durP2;ratioP2;P2;SDS_P1;SDS_P2;PMS_P1;PMS_P2;Temp;Humidity;BMP_temperature;BMP_pressure;BME280_temperature;BME280_humidity;BME280_pressure;Samples;Min_cycle;Max_cycle;Signal;HPM_P1;HPM_P2
2022/03/27 00:00:34;;;;;;;8.43;5.57;;;10.80;82.60;;;;;;4995030;28;20117;-65
2022/03/27 00:03:00;;;;;;;9.68;5.55;;;10.90;82.40;;;;;;4996489;28;20113;-65
2022/03/27 00:05:26;;;;;;;7.38;5.15;;;10.90;82.30;;;;;;4996210;28;20469;-65
2022/03/27 00:07:52;;;;;;;8.02;5.55;;;11.00;82.40;;;;;;4996327;28;20031;-65
2022/03/27 00:10:18;;;;;;;10.10;6.32;;;10.90;82.50;;;;;;4995394;28;20025;-65
2022/03/27 00:12:43;;;;;;;8.23;5.25;;;10.90;82.60;;;;;;4992988;28;20513;-65
2022/03/27 00:15:09;;;;;;;9.18;5.80;;;10.90;82.70;;;;;;4996776;28;20403;-65
2022/03/27 00:17:35;;;;;;;9.88;5.90;;;10.80;82.80;;;;;;4996202;28;20477;-65
2022/03/27 00:20:04;;;;;;;8.20;6.20;;;11.00;82.50;;;;;;4996349;28;20026;-65
2022/03/27 00:22:29;;;;;;;12.00;5.75;;;10.80;82.90;;;;;;4994551;28;20502;-65
2022/03/27 00:24:57;;;;;;;8.98;6.53;;;10.70;83.60;;;;;;4991733;28;20054;-65
2022/03/27 00:27:23;;;;;;;7.47;5.90;;;10.70;83.30;;;;;;4997454;28;20125;-65
2022/03/27 00:29:49;;;;;;;9.30;5.88;;;10.70;84.00;;;;;;4995659;28;20046;-65
2022/03/27 00:32:16;;;;;;;8.73;5.90;;;10.80;83.10;;;;;;4995565;28;20585;-65
2022/03/27 00:34:42;;;;;;;9.23;6.50;;;10.70;83.50;;;;;;4995754;28;20108;-65
2022/03/27 00:37:07;;;;;;;12.90;6.10;;;10.70;83.50;;;;;;4993394;28;20105;-65
2022/03/27 00:39:33;;;;;;;9.75;5.85;;;10.70;83.50;;;;;;4994911;28;20472;-65
2022/03/27 00:41:59;;;;;;;9.25;6.20;;;10.50;84.30;;;;;;4994748;28;20030;-65
2022/03/27 00:44:25;;;;;;;11.13;6.53;;;10.40;84.70;;;;;;4995471;28;20027;-65
2022/03/27 00:46:51;;;;;;;9.32;6.15;;;10.40;84.60;;;;;;4995922;28;20032;-65
2022/03/27 00:49:16;;;;;;;9.05;6.38;;;10.20;85.40;;;;;;4994030;28;20029;-65
2022/03/27 00:51:42;;;;;;;8.27;5.75;;;10.30;85.40;;;;;;4992890;28;20030;-65
2022/03/27 00:54:08;;;;;;;8.57;6.05;;;10.30;85.00;;;;;;4995817;28;20034;-65
2022/03/27 00:56:34;;;;;;;7.85;6.40;;;10.30;85.30;;;;;;4993736;28;20038;-65
2022/03/27 00:59:00;;;;;;;12.43;6.30;;;10.40;85.00;;;;;;4995253;28;20034;-65
2022/03/27 01:01:35;;;;;;;10.15;6.70;;;10.30;86.00;;;;;;4994169;28;20072;-65
2022/03/27 01:04:01;;;;;;;10.93;6.22;;;10.40;85.20;;;;;;4977166;28;20033;-65
2022/03/27 01:06:44;;;;;;;8.63;6.18;;;10.30;85.40;;;;;;4996185;28;20062;-65
2022/03/27 01:12:21;;;;;;;9.00;6.32;;;10.40;85.10;;;;;;4996624;28;20045;-65
2022/03/27 01:14:48;;;;;;;12.52;6.35;;;10.30;85.60;;;;;;4995383;28;20034;-65
2022/03/27 01:17:16;;;;;;;8.90;6.43;;;10.40;85.50;;;;;;4995022;28;20038;-65
2022/03/27 01:19:48;;;;;;;8.48;6.10;;;10.20;85.60;;;;;;4993436;28;20104;-65
2022/03/27 01:22:15;;;;;;;8.10;6.38;;;10.30;85.70;;;;;;4991859;28;20026;-65
2022/03/27 01:24:41;;;;;;;10.25;6.20;;;10.20;86.20;;;;;;4991898;28;20487;-65
2022/03/27 01:27:08;;;;;;;7.50;6.18;;;10.20;86.50;;;;;;4997020;28;20026;-65
2022/03/27 01:29:34;;;;;;;9.68;6.45;;;10.10;86.80;;;;;;4994996;28;20395;-65
2022/03/27 01:32:00;;;;;;;12.38;6.13;;;10.10;87.00;;;;;;4993583;28;20034;-65
2022/03/27 01:34:26;;;;;;;9.48;6.38;;;10.00;87.40;;;;;;4994857;28;20030;-65
2022/03/27 01:36:52;;;;;;;12.15;6.88;;;9.90;87.50;;;;;;4990569;28;20380;-65
2022/03/27 01:39:18;;;;;;;7.38;6.10;;;9.90;87.70;;;;;;4996377;28;20034;-65
2022/03/27 01:41:44;;;;;;;10.10;6.43;;;9.90;87.90;;;;;;4992919;28;20034;-65
2022/03/27 01:44:16;;;;;;;8.90;6.65;;;9.80;88.30;;;;;;4993578;28;20387;-65
2022/03/27 01:46:43;;;;;;;8.18;6.32;;;9.70;88.70;;;;;;4994816;28;20049;-65
2022/03/27 01:49:11;;;;;;;10.27;6.70;;;9.50;89.30;;;;;;4991874;28;20037;-65
2022/03/27 01:51:41;;;;;;;8.73;6.63;;;9.50;89.50;;;;;;4992973;28;20077;-65
2022/03/27 01:54:07;;;;;;;9.52;6.65;;;9.50;89.60;;;;;;4994335;28;20451;-65
2022/03/27 01:56:33;;;;;;;7.68;6.22;;;9.50;89.60;;;;;;4994384;28;20026;-65
2022/03/27 01:59:00;;;;;;;8.95;6.60;;;9.50;89.90;;;;;;4997794;28;20026;-65
2022/03/27 02:01:26;;;;;;;12.43;6.38;;;9.50;89.70;;;;;;4999825;28;20021;-65
2022/03/27 02:03:54;;;;;;;9.35;6.50;;;9.60;89.70;;;;;;4997058;28;20034;-65
2022/03/27 02:06:20;;;;;;;11.25;6.55;;;9.50;90.00;;;;;;5003052;28;20487;-65
2022/03/27 02:08:46;;;;;;;10.38;6.72;;;9.40;90.10;;;;;;5000532;28;20050;-65
2022/03/27 02:11:15;;;;;;;9.18;6.35;;;9.60;90.00;;;;;;4999405;28;20135;-65
2022/03/27 02:13:41;;;;;;;8.77;6.82;;;9.50;89.90;;;;;;5000817;28;20049;-65
2022/03/27 02:16:07;;;;;;;8.82;6.38;;;9.60;89.70;;;;;;4998096;28;20026;-65
2022/03/27 02:18:33;;;;;;;11.85;6.57;;;9.60;90.00;;;;;;5000181;28;20446;-66
2022/03/27 02:21:05;;;;;;;9.43;6.80;;;9.50;90.00;;;;;;4999934;28;20030;-65
2022/03/27 02:23:31;;;;;;;10.45;6.90;;;9.50;90.10;;;;;;5000029;28;20033;-65
2022/03/27 02:25:57;;;;;;;12.40;7.05;;;9.70;89.70;;;;;;5000622;28;20392;-66
2022/03/27 02:28:23;;;;;;;10.88;6.90;;;9.70;89.60;;;;;;4999345;28;20406;-66
2022/03/27 02:30:49;;;;;;;10.20;6.60;;;9.70;89.80;;;;;;4996775;28;20399;-66
2022/03/27 02:33:16;;;;;;;10.68;6.85;;;9.60;90.30;;;;;;5002655;28;20037;-66
2022/03/27 02:35:42;;;;;;;9.30;6.60;;;9.60;90.10;;;;;;5000708;28;20022;-66
2022/03/27 02:38:08;;;;;;;9.68;7.00;;;9.50;90.30;;;;;;4999975;28;20034;-66
2022/03/27 02:40:38;;;;;;;8.45;6.35;;;9.50;90.10;;;;;;5000572;28;20021;-66
2022/03/27 02:43:04;;;;;;;8.57;6.28;;;9.50;90.20;;;;;;4997577;28;20053;-66
2022/03/27 02:45:31;;;;;;;8.05;6.60;;;9.50;90.20;;;;;;5000870;28;20483;-66
2022/03/27 02:47:57;;;;;;;7.65;6.65;;;9.40;90.30;;;;;;5001299;28;20046;-65
2022/03/27 02:50:24;;;;;;;11.90;6.60;;;9.40;90.50;;;;;;4999691;28;20023;-66
2022/03/27 02:52:51;;;;;;;10.68;6.93;;;9.30;90.60;;;;;;5000127;28;20042;-66
2022/03/27 02:55:17;;;;;;;11.27;6.75;;;9.20;90.80;;;;;;4999013;28;20106;-66
2022/03/27 02:57:43;;;;;;;9.63;6.80;;;9.20;91.00;;;;;;4998453;28;20069;-66
2022/03/27 03:00:10;;;;;;;10.10;7.00;;;9.10;91.00;;;;;;5000839;28;20030;-65
2022/03/27 03:02:36;;;;;;;11.68;6.65;;;9.10;91.20;;;;;;5000366;28;20034;-66
2022/03/27 03:05:02;;;;;;;9.20;6.93;;;9.00;91.30;;;;;;5000464;28;20026;-66
2022/03/27 03:07:28;;;;;;;9.85;7.07;;;8.90;91.60;;;;;;5000206;28;20030;-66
2022/03/27 03:09:55;;;;;;;12.80;6.88;;;8.80;91.90;;;;;;4993383;28;20097;-66
2022/03/27 03:12:21;;;;;;;9.88;6.57;;;8.50;92.80;;;;;;4999356;28;20037;-66
2022/03/27 03:14:47;;;;;;;10.65;6.90;;;8.60;92.40;;;;;;4997224;28;20031;-66
2022/03/27 03:17:13;;;;;;;10.27;7.32;;;8.40;92.80;;;;;;4996046;28;20511;-66
2022/03/27 03:19:39;;;;;;;11.70;6.53;;;8.30;92.80;;;;;;4995686;28;20022;-66
2022/03/27 03:22:07;;;;;;;12.18;6.72;;;8.40;92.60;;;;;;4994097;28;20045;-66
2022/03/27 03:24:33;;;;;;;10.07;7.25;;;8.10;93.20;;;;;;4997067;28;20034;-66
2022/03/27 03:26:59;;;;;;;10.70;7.88;;;8.10;93.20;;;;;;4998244;28;20389;-66
2022/03/27 03:29:25;;;;;;;10.70;6.68;;;7.90;93.80;;;;;;4995623;28;20061;-66
2022/03/27 03:31:51;;;;;;;11.88;7.30;;;8.10;93.70;;;;;;4995519;28;20027;-66
2022/03/27 03:34:16;;;;;;;10.90;6.85;;;7.80;94.10;;;;;;4995119;28;20030;-66
2022/03/27 03:36:43;;;;;;;11.43;7.05;;;7.80;94.30;;;;;;4994898;28;20133;-66
2022/03/27 03:39:10;;;;;;;9.10;6.97;;;7.80;94.10;;;;;;4997238;28;20373;-66
2022/03/27 03:41:36;;;;;;;10.38;7.00;;;7.90;94.10;;;;;;4996584;28;20113;-65
2022/03/27 03:44:02;;;;;;;11.02;7.60;;;7.90;94.10;;;;;;4996664;28;20038;-65
2022/03/27 03:46:28;;;;;;;11.20;7.35;;;8.00;94.40;;;;;;4996696;28;20014;-66
2022/03/27 03:48:53;;;;;;;11.45;7.38;;;8.10;93.70;;;;;;4977025;28;20066;-66
2022/03/27 03:51:19;;;;;;;11.15;7.47;;;8.10;93.80;;;;;;4998652;28;20061;-65
2022/03/27 03:53:45;;;;;;;12.68;7.07;;;8.10;93.60;;;;;;4996450;28;20046;-66
2022/03/27 03:56:11;;;;;;;11.43;7.38;;;8.20;93.50;;;;;;4995140;28;20050;-65
2022/03/27 03:58:37;;;;;;;10.32;7.15;;;8.10;93.50;;;;;;4996824;28;20522;-65
2022/03/27 04:01:03;;;;;;;9.80;6.65;;;8.30;93.20;;;;;;4992963;28;20022;-65
2022/03/27 04:03:29;;;;;;;13.02;7.40;;;8.30;93.00;;;;;;4996331;28;20110;-65
2022/03/27 04:05:55;;;;;;;10.93;6.95;;;8.40;92.80;;;;;;4996951;28;20042;-66
2022/03/27 04:08:21;;;;;;;11.75;6.90;;;8.50;92.80;;;;;;4994953;28;20050;-66
2022/03/27 04:10:48;;;;;;;10.20;6.70;;;8.50;92.60;;;;;;4996247;28;20041;-66
2022/03/27 04:13:13;;;;;;;11.50;7.03;;;8.60;92.50;;;;;;4994064;28;20022;-65
2022/03/27 04:15:39;;;;;;;11.85;7.13;;;8.70;92.30;;;;;;4995238;28;20041;-66
2022/03/27 04:18:06;;;;;;;7.75;6.13;;;8.70;92.30;;;;;;4995482;28;20543;-66
2022/03/27 04:20:33;;;;;;;10.32;6.80;;;8.70;92.40;;;;;;4995434;28;20047;-66
2022/03/27 04:22:59;;;;;;;9.02;6.72;;;8.60;92.40;;;;;;4996381;28;20038;-65
2022/03/27 04:25:24;;;;;;;10.48;7.22;;;8.50;92.60;;;;;;4995398;28;20483;-65
2022/03/27 04:27:51;;;;;;;11.88;6.68;;;8.60;92.60;;;;;;4992244;28;20376;-66
2022/03/27 04:30:17;;;;;;;10.77;6.78;;;8.60;92.50;;;;;;4998294;28;20491;-66
2022/03/27 04:32:43;;;;;;;11.38;7.03;;;8.60;92.50;;;;;;4995312;28;20093;-65
2022/03/27 04:35:10;;;;;;;10.75;6.63;;;8.70;92.50;;;;;;4994103;28;20030;-66
2022/03/27 04:37:44;;;;;;;11.10;7.20;;;8.70;92.30;;;;;;4995776;28;20022;-66
2022/03/27 04:40:13;;;;;;;10.15;6.95;;;8.60;92.50;;;;;;4993151;28;20022;-66
2022/03/27 04:42:40;;;;;;;8.65;6.25;;;8.60;92.90;;;;;;4993565;28;20065;-66
2022/03/27 04:45:06;;;;;;;9.43;6.40;;;8.60;92.60;;;;;;4997615;28;20030;-66
2022/03/27 04:47:32;;;;;;;7.80;6.05;;;8.60;92.70;;;;;;4993988;28;20487;-66
2022/03/27 04:49:58;;;;;;;10.27;6.60;;;8.60;92.80;;;;;;4995390;28;20062;-66
2022/03/27 04:52:24;;;;;;;9.80;6.60;;;8.50;92.90;;;;;;4995168;28;20040;-66
2022/03/27 04:54:50;;;;;;;10.07;7.25;;;8.50;92.90;;;;;;4991334;28;20074;-66
2022/03/27 04:57:16;;;;;;;10.48;6.50;;;8.40;93.00;;;;;;4996992;28;20027;-66
2022/03/27 04:59:42;;;;;;;10.60;6.93;;;8.40;93.30;;;;;;4995524;28;20027;-66
2022/03/27 05:02:07;;;;;;;16.08;14.40;;;8.40;93.30;;;;;;4994890;28;20023;-66
2022/03/27 05:04:33;;;;;;;9.25;7.03;;;8.30;93.30;;;;;;4995086;28;20394;-66
2022/03/27 05:06:59;;;;;;;9.23;6.65;;;8.40;93.60;;;;;;4991350;28;20023;-66
2022/03/27 05:09:25;;;;;;;10.77;7.30;;;8.40;93.50;;;;;;4997220;28;20053;-66
2022/03/27 05:11:50;;;;;;;8.98;6.30;;;8.30;93.70;;;;;;4994945;28;20042;-66
2022/03/27 05:14:16;;;;;;;8.38;6.40;;;8.30;93.50;;;;;;4993663;28;20476;-66
2022/03/27 05:16:42;;;;;;;10.43;6.70;;;8.40;93.50;;;;;;4995018;28;20509;-66
2022/03/27 05:19:08;;;;;;;9.70;6.20;;;8.40;93.50;;;;;;4992111;28;20026;-66
2022/03/27 05:21:35;;;;;;;11.05;6.57;;;8.40;93.60;;;;;;4994751;28;20487;-66
2022/03/27 05:24:01;;;;;;;9.95;6.55;;;8.40;93.70;;;;;;4996607;28;20030;-66
2022/03/27 05:26:27;;;;;;;7.53;6.18;;;8.30;93.80;;;;;;4993428;28;20403;-66
2022/03/27 05:28:54;;;;;;;11.30;6.10;;;8.20;93.90;;;;;;4994878;28;20022;-66
2022/03/27 05:31:20;;;;;;;10.48;6.20;;;8.30;93.80;;;;;;4993186;28;20026;-66
2022/03/27 05:33:46;;;;;;;10.20;6.57;;;8.30;93.90;;;;;;4991467;28;20042;-66
2022/03/27 05:36:12;;;;;;;10.73;6.60;;;8.20;93.80;;;;;;4995371;28;20037;-66
2022/03/27 05:38:39;;;;;;;10.60;6.40;;;8.20;94.00;;;;;;4994848;28;20026;-66
2022/03/27 05:41:09;;;;;;;9.23;5.65;;;8.20;94.00;;;;;;4995017;28;20034;-66
2022/03/27 05:43:35;;;;;;;11.68;6.60;;;8.00;94.30;;;;;;4994603;28;20056;-67
2022/03/27 05:46:02;;;;;;;11.18;6.78;;;8.00;94.40;;;;;;4991079;28;20030;-66
2022/03/27 05:48:27;;;;;;;8.88;6.43;;;8.00;94.30;;;;;;4995421;28;20125;-66
2022/03/27 05:50:53;;;;;;;7.93;6.30;;;8.00;94.30;;;;;;4995530;28;20449;-66
2022/03/27 05:53:19;;;;;;;10.07;6.82;;;8.00;94.40;;;;;;4992853;28;20547;-66
2022/03/27 05:55:47;;;;;;;8.82;6.72;;;8.00;94.40;;;;;;4994689;28;20022;-66
2022/03/27 05:58:13;;;;;;;8.93;6.07;;;7.90;94.50;;;;;;4992404;28;20196;-66
2022/03/27 06:00:39;;;;;;;11.93;6.85;;;7.90;94.60;;;;;;4992308;28;20495;-66
2022/03/27 06:03:05;;;;;;;9.82;6.68;;;7.90;94.80;;;;;;4996431;28;20522;-66
2022/03/27 06:05:31;;;;;;;9.43;7.28;;;7.90;94.60;;;;;;4993080;28;20030;-66
2022/03/27 06:07:58;;;;;;;13.00;7.43;;;8.00;94.60;;;;;;4994396;28;20408;-66
2022/03/27 06:10:31;;;;;;;8.48;7.13;;;8.00;94.60;;;;;;4994128;28;20491;-66
2022/03/27 06:12:57;;;;;;;9.63;7.10;;;7.90;94.90;;;;;;4974729;28;20106;-66
2022/03/27 06:15:23;;;;;;;10.27;7.60;;;7.80;95.20;;;;;;5002874;28;20033;-66
2022/03/27 06:17:51;;;;;;;11.07;7.22;;;7.70;95.50;;;;;;4994651;28;20034;-66
2022/03/27 06:20:30;;;;;;;9.93;6.55;;;7.80;95.60;;;;;;4994408;28;20369;-66
2022/03/27 06:22:57;;;;;;;9.85;6.72;;;7.40;97.10;;;;;;4994245;28;20046;-66
2022/03/27 06:25:26;;;;;;;7.43;6.47;;;7.40;97.30;;;;;;4993765;28;20037;-66
2022/03/27 06:27:52;;;;;;;9.82;6.50;;;7.40;97.50;;;;;;4990459;28;20030;-66
2022/03/27 06:30:23;;;;;;;10.05;7.32;;;7.60;97.40;;;;;;4995983;28;20034;-66
2022/03/27 06:32:51;;;;;;;8.88;6.97;;;7.90;97.60;;;;;;4992472;28;20042;-65
2022/03/27 06:35:18;;;;;;;8.90;6.32;;;8.40;96.80;;;;;;4994026;28;20047;-66
2022/03/27 06:37:44;;;;;;;10.20;6.35;;;8.50;96.10;;;;;;4994162;28;20109;-66
2022/03/27 06:40:12;;;;;;;11.18;6.97;;;8.90;95.90;;;;;;4991663;28;20560;-66
2022/03/27 06:42:39;;;;;;;8.30;6.95;;;9.20;95.20;;;;;;4992799;28;20053;-67
2022/03/27 06:45:06;;;;;;;8.73;6.78;;;9.60;94.60;;;;;;4996372;28;20444;-67
2022/03/27 06:47:33;;;;;;;12.45;8.35;;;9.90;93.70;;;;;;4997651;28;20026;-67
2022/03/27 06:50:00;;;;;;;46.08;39.15;;;11.00;92.90;;;;;;4996384;28;20039;-67
2022/03/27 06:52:27;;;;;;;19.40;15.68;;;11.30;91.70;;;;;;4994433;28;20033;-67
2022/03/27 06:54:54;;;;;;;17.80;15.90;;;12.00;90.90;;;;;;4993727;28;20105;-67
2022/03/27 06:57:20;;;;;;;17.88;15.68;;;12.30;90.30;;;;;;4999369;28;20026;-67
2022/03/27 07:05:15;;;;;;;11.10;7.55;;;11.90;90.70;;;;;;4997607;28;20033;-67
2022/03/27 07:07:42;;;;;;;10.05;7.60;;;12.60;89.50;;;;;;4996254;28;20029;-67
2022/03/27 07:10:11;;;;;;;9.23;7.20;;;12.80;89.10;;;;;;4992895;28;20484;-67
2022/03/27 07:12:38;;;;;;;10.77;7.18;;;13.40;87.90;;;;;;4995692;28;20074;-67
2022/03/27 07:15:05;;;;;;;8.32;6.70;;;14.10;85.60;;;;;;4998654;28;20545;-67
2022/03/27 07:17:31;;;;;;;10.38;6.68;;;14.70;84.70;;;;;;4996949;28;20030;-66
2022/03/27 07:19:56;;;;;;;9.45;6.55;;;14.30;84.40;;;;;;4997241;28;20026;-67
2022/03/27 07:22:22;;;;;;;9.35;6.30;;;15.50;81.00;;;;;;4994838;28;20033;-68
2022/03/27 07:24:48;;;;;;;9.32;7.00;;;14.30;83.10;;;;;;4993960;28;20042;-67
2022/03/27 07:27:14;;;;;;;10.23;6.00;;;14.90;82.40;;;;;;4999025;28;20364;-67
2022/03/27 07:29:40;;;;;;;9.32;6.28;;;16.10;80.00;;;;;;4996975;28;20026;-67
2022/03/27 07:32:06;;;;;;;11.88;6.68;;;16.40;78.80;;;;;;4995367;28;20084;-67
2022/03/27 07:34:35;;;;;;;9.35;6.68;;;17.20;76.40;;;;;;4996777;28;20029;-67
2022/03/27 07:37:03;;;;;;;9.68;6.15;;;16.90;77.20;;;;;;4992886;28;20532;-67
2022/03/27 07:39:29;;;;;;;8.82;6.38;;;17.60;74.80;;;;;;4997667;28;20125;-68
2022/03/27 07:41:55;;;;;;;8.68;6.50;;;17.40;74.90;;;;;;4997800;28;20042;-68
2022/03/27 07:44:21;;;;;;;7.88;6.00;;;17.10;75.70;;;;;;4996982;28;20558;-68
2022/03/27 07:46:48;;;;;;;7.88;6.10;;;17.30;74.90;;;;;;4996702;28;20022;-67
2022/03/27 07:49:14;;;;;;;8.30;6.07;;;17.20;76.50;;;;;;4992848;28;20023;-68
2022/03/27 07:51:39;;;;;;;9.23;6.00;;;17.80;74.20;;;;;;4994813;28;20443;-67
2022/03/27 07:54:05;;;;;;;9.15;5.97;;;17.90;73.90;;;;;;4998605;28;20038;-67
2022/03/27 07:56:31;;;;;;;10.43;6.53;;;17.30;74.20;;;;;;4995127;28;20054;-67
2022/03/27 07:58:57;;;;;;;6.93;5.80;;;16.10;76.70;;;;;;4996621;28;20089;-67
2022/03/27 08:01:23;;;;;;;9.82;6.00;;;15.90;76.20;;;;;;4993595;28;20029;-67
2022/03/27 08:03:49;;;;;;;7.20;6.22;;;16.60;75.20;;;;;;4993261;28;20026;-67
2022/03/27 08:06:15;;;;;;;7.82;5.97;;;16.60;75.10;;;;;;4998299;28;20526;-67
2022/03/27 08:08:42;;;;;;;9.65;6.05;;;16.70;75.10;;;;;;4996122;28;20510;-67
2022/03/27 08:11:08;;;;;;;9.80;6.20;;;17.60;74.20;;;;;;4994457;28;20112;-67
2022/03/27 08:13:34;;;;;;;6.63;5.47;;;17.80;74.30;;;;;;4994650;28;20026;-67
2022/03/27 08:16:00;;;;;;;9.93;6.43;;;19.70;71.30;;;;;;4992278;28;20023;-67
2022/03/27 08:18:26;;;;;;;11.02;6.05;;;20.50;69.90;;;;;;4998073;28;20491;-67
2022/03/27 08:20:52;;;;;;;8.32;5.63;;;20.10;68.60;;;;;;4994869;28;20030;-67
2022/03/27 08:23:18;;;;;;;11.75;5.68;;;20.10;68.90;;;;;;4995775;28;20038;-67
2022/03/27 08:28:28;;;;;;;7.97;5.97;;;20.90;68.60;;;;;;4994678;28;20126;-68
2022/03/27 08:30:53;;;;;;;9.20;5.70;;;21.10;68.80;;;;;;4991106;28;20117;-67
2022/03/27 08:33:19;;;;;;;6.93;5.25;;;21.20;67.70;;;;;;4997065;28;20081;-67
2022/03/27 08:35:46;;;;;;;8.30;5.38;;;20.60;69.00;;;;;;4995107;28;20033;-68
2022/03/27 08:38:16;;;;;;;7.25;5.30;;;21.50;66.50;;;;;;4995442;28;20522;-68
2022/03/27 08:40:43;;;;;;;8.50;5.57;;;20.50;68.90;;;;;;4993669;28;20557;-68
2022/03/27 08:43:12;;;;;;;8.02;5.20;;;22.10;66.40;;;;;;4992171;28;20133;-67
2022/03/27 08:45:38;;;;;;;8.15;5.30;;;22.10;66.30;;;;;;4994367;28;20034;-68
2022/03/27 08:48:05;;;;;;;7.18;5.13;;;21.30;67.00;;;;;;4997024;28;20399;-68
2022/03/27 08:50:42;;;;;;;8.23;5.30;;;22.50;67.90;;;;;;4994129;28;20034;-67
2022/03/27 08:53:11;;;;;;;9.52;5.13;;;22.80;65.10;;;;;;4995223;28;20042;-73
2022/03/27 08:55:54;;;;;;;7.38;5.30;;;19.10;69.20;;;;;;4995437;28;20095;-69
2022/03/27 08:58:25;;;;;;;6.63;5.13;;;20.40;75.10;;;;;;4994333;28;20053;-68
2022/03/27 09:00:51;;;;;;;7.25;5.38;;;20.80;74.00;;;;;;4991205;28;20034;-69
2022/03/27 09:03:20;;;;;;;9.52;5.03;;;19.40;69.60;;;;;;4997431;28;20104;-69
2022/03/27 09:05:45;;;;;;;8.52;5.40;;;19.40;68.90;;;;;;4995175;28;20026;-70
2022/03/27 09:08:12;;;;;;;6.93;5.35;;;19.20;69.10;;;;;;4992408;28;20176;-70
2022/03/27 09:10:39;;;;;;;8.98;5.15;;;19.80;69.80;;;;;;4993447;28;20018;-70
2022/03/27 09:13:06;;;;;;;8.15;5.28;;;20.10;70.50;;;;;;4991221;28;20026;-70
2022/03/27 09:15:32;;;;;;;8.70;5.40;;;19.30;70.70;;;;;;4995105;28;20149;-69
2022/03/27 09:18:04;;;;;;;7.57;5.10;;;19.40;68.90;;;;;;4995107;28;20065;-68
2022/03/27 09:20:31;;;;;;;9.75;5.55;;;20.50;70.10;;;;;;4993585;28;20046;-68
2022/03/27 09:23:11;;;;;;;16.92;6.05;;;19.80;71.90;;;;;;4993371;28;20491;-70
2022/03/27 09:26:04;;;;;;;11.05;6.18;;;20.00;73.10;;;;;;4994858;28;20029;-70
2022/03/27 09:28:40;;;;;;;6.97;4.88;;;20.20;70.40;;;;;;4993202;28;20083;-71
2022/03/27 09:31:26;;;;;;;10.90;5.47;;;19.70;69.90;;;;;;4976701;28;20038;-71
2022/03/27 09:33:57;;;;;;;8.32;4.93;;;19.90;70.60;;;;;;4990620;28;20034;-71
2022/03/27 09:36:34;;;;;;;7.70;5.47;;;19.80;71.70;;;;;;4996777;28;20030;-69
2022/03/27 09:39:09;;;;;;;7.20;5.28;;;19.30;71.90;;;;;;4995418;28;20038;-71
2022/03/27 09:41:42;;;;;;;9.30;5.38;;;19.70;71.70;;;;;;4994168;28;20041;-72
2022/03/27 09:44:11;;;;;;;8.57;5.68;;;19.50;71.80;;;;;;4994877;28;20069;-70
2022/03/27 09:46:47;;;;;;;12.70;7.45;;;20.20;70.70;;;;;;4993159;28;20076;-69
2022/03/27 09:49:14;;;;;;;8.63;5.22;;;21.80;68.90;;;;;;4991611;28;20031;-70
2022/03/27 09:52:00;;;;;;;7.65;5.05;;;19.60;70.90;;;;;;4992741;28;20097;-70
2022/03/27 09:54:28;;;;;;;9.02;5.90;;;20.20;71.20;;;;;;5004207;28;20123;-71
2022/03/27 09:56:55;;;;;;;7.90;5.82;;;20.30;70.60;;;;;;4995055;28;20027;-68
2022/03/27 09:59:28;;;;;;;8.60;5.60;;;20.00;72.70;;;;;;4992939;28;20042;-71
2022/03/27 10:01:54;;;;;;;9.68;6.63;;;21.20;70.50;;;;;;4994568;28;20019;-70
2022/03/27 10:04:20;;;;;;;10.95;6.07;;;20.80;72.20;;;;;;4993190;28;20042;-70
2022/03/27 10:06:45;;;;;;;11.63;7.43;;;20.50;71.00;;;;;;4991702;28;20494;-69
2022/03/27 10:09:13;;;;;;;11.65;5.35;;;22.30;69.70;;;;;;4993606;28;20026;-71
2022/03/27 10:11:42;;;;;;;10.30;5.18;;;19.90;71.00;;;;;;4994557;28;20029;-70
2022/03/27 10:14:09;;;;;;;13.85;6.78;;;19.90;70.60;;;;;;4994446;28;20099;-68
2022/03/27 10:16:47;;;;;;;11.35;6.53;;;19.90;74.00;;;;;;4994534;28;20033;-69
2022/03/27 10:19:35;;;;;;;11.93;5.32;;;20.10;71.60;;;;;;4992256;28;20492;-69
2022/03/27 10:22:05;;;;;;;8.93;5.20;;;20.90;71.20;;;;;;4979249;28;20019;-69
2022/03/27 10:24:32;;;;;;;10.82;6.57;;;21.50;71.60;;;;;;4998727;28;20058;-68
2022/03/27 10:27:02;;;;;;;11.05;5.45;;;21.70;74.40;;;;;;4997941;28;20077;-71
2022/03/27 10:29:29;;;;;;;11.38;7.93;;;20.90;70.40;;;;;;4997224;28;20053;-69
2022/03/27 10:31:59;;;;;;;11.32;7.50;;;21.30;74.60;;;;;;4997903;28;20027;-71
2022/03/27 10:34:26;;;;;;;11.38;6.38;;;20.50;71.90;;;;;;4997791;28;20041;-75
2022/03/27 10:37:06;;;;;;;19.75;7.13;;;19.70;72.40;;;;;;4993965;28;20030;-58
2022/03/27 10:40:17;;;;;;;14.52;7.50;;;19.30;74.70;;;;;;5007069;28;20022;-63
2022/03/27 10:43:03;;;;;;;13.27;5.65;;;19.70;75.30;;;;;;4951664;29;20043;-63
2022/03/27 10:45:30;;;;;;;17.10;6.13;;;19.50;74.90;;;;;;4954187;29;20027;-61
2022/03/27 10:48:15;;;;;;;26.67;13.52;;;19.40;72.80;;;;;;4942511;29;20461;-63
2022/03/27 10:50:45;;;;;;;10.23;5.47;;;19.80;74.90;;;;;;4942812;29;20043;-63
2022/03/27 10:53:11;;;;;;;12.50;5.28;;;19.70;73.90;;;;;;4943140;29;20134;-63
2022/03/27 10:55:46;;;;;;;13.70;5.97;;;19.10;75.10;;;;;;4942586;29;20082;-62
2022/03/27 10:58:34;;;;;;;16.05;7.05;;;19.60;75.70;;;;;;4920432;29;20118;-63
2022/03/27 11:01:23;;;;;;;18.23;7.50;;;19.90;74.90;;;;;;4953647;29;20235;-62
2022/03/27 11:04:04;;;;;;;17.05;5.95;;;20.00;75.60;;;;;;4952495;29;20046;-63
2022/03/27 11:06:32;;;;;;;15.32;6.57;;;19.70;75.50;;;;;;4950488;29;20027;-62
2022/03/27 11:09:00;;;;;;;11.65;5.00;;;20.70;75.30;;;;;;4941985;29;20038;-63
2022/03/27 11:11:39;;;;;;;14.52;6.30;;;19.50;76.50;;;;;;4942684;29;20123;-64
2022/03/27 11:14:06;;;;;;;14.68;6.22;;;19.70;75.00;;;;;;4942593;29;20055;-63
2022/03/27 11:16:37;;;;;;;14.95;5.68;;;20.00;75.20;;;;;;4942922;29;20034;-63
2022/03/27 11:19:04;;;;;;;14.77;6.20;;;19.70;76.90;;;;;;4963840;28;20051;-63
2022/03/27 11:21:29;;;;;;;19.35;5.90;;;20.10;75.60;;;;;;4998287;28;20034;-63
2022/03/27 11:24:18;;;;;;;13.63;5.80;;;20.00;76.60;;;;;;4997771;28;20026;-62
2022/03/27 11:26:43;;;;;;;16.35;5.40;;;20.10;76.60;;;;;;4995791;28;20045;-63
2022/03/27 11:29:24;;;;;;;16.80;5.47;;;20.20;75.60;;;;;;4997163;28;20097;-63
2022/03/27 11:32:08;;;;;;;16.83;5.43;;;20.10;76.20;;;;;;4996194;28;20026;-63
2022/03/27 11:34:37;;;;;;;;;;;19.90;75.60;;;;;;4997188;28;20041;-62
2022/03/27 11:37:17;;;;;;;13.18;5.38;;;20.50;76.40;;;;;;4993307;28;22509;-63
2022/03/27 11:39:46;;;;;;;15.55;5.65;;;20.50;75.30;;;;;;4994732;28;20043;-63
2022/03/27 11:42:25;;;;;;;16.73;5.85;;;20.40;76.20;;;;;;4997107;28;20070;-62
2022/03/27 11:45:12;;;;;;;12.15;5.70;;;19.70;76.20;;;;;;4995415;28;20030;-63
2022/03/27 11:47:40;;;;;;;18.17;6.55;;;20.40;77.60;;;;;;4995252;28;20030;-63
2022/03/27 11:50:08;;;;;;;15.85;5.95;;;20.10;77.30;;;;;;4997010;28;20034;-62
2022/03/27 11:52:34;;;;;;;12.13;5.45;;;19.70;77.00;;;;;;4996533;28;20040;-63
2022/03/27 11:55:09;;;;;;;11.50;5.15;;;19.80;76.20;;;;;;4991275;28;20057;-64
2022/03/27 11:57:51;;;;;;;17.05;6.00;;;19.60;75.70;;;;;;4996358;28;20391;-63
2022/03/27 12:00:31;;;;;;;13.38;5.43;;;19.80;76.50;;;;;;4996893;28;20027;-63
2022/03/27 12:02:58;;;;;;;13.68;4.80;;;20.00;77.30;;;;;;4995472;28;20030;-63
2022/03/27 12:05:33;;;;;;;12.80;5.60;;;20.00;76.40;;;;;;4994879;28;20031;-63
2022/03/27 12:07:59;;;;;;;20.55;5.72;;;19.90;76.80;;;;;;4996894;28;20461;-63
2022/03/27 12:10:26;;;;;;;11.82;5.05;;;20.00;76.80;;;;;;4995597;28;20076;-62
2022/03/27 12:13:01;;;;;;;12.27;5.25;;;20.10;75.80;;;;;;4992630;28;20415;-63
2022/03/27 12:15:52;;;;;;;10.50;4.97;;;20.00;75.80;;;;;;5005695;28;20041;-63
2022/03/27 12:18:30;;;;;;;14.73;5.65;;;20.50;76.10;;;;;;4997182;28;20038;-63
2022/03/27 12:20:56;;;;;;;17.90;5.47;;;20.50;77.00;;;;;;4996787;28;20355;-63
2022/03/27 12:23:29;;;;;;;15.05;5.60;;;20.50;75.90;;;;;;4994980;28;20053;-64
2022/03/27 12:26:04;;;;;;;10.82;5.30;;;21.20;75.20;;;;;;4995069;28;20029;-63
2022/03/27 12:31:26;;;;;;;18.27;6.00;;;20.80;75.90;;;;;;4980613;28;20041;-62
2022/03/27 12:33:55;;;;;;;12.48;5.30;;;20.00;76.70;;;;;;4991868;28;20050;-63
2022/03/27 12:36:22;;;;;;;13.65;5.05;;;20.10;76.70;;;;;;4997912;28;20431;-63
2022/03/27 12:38:48;;;;;;;12.13;5.47;;;20.00;77.20;;;;;;4994718;28;20034;-63
2022/03/27 12:41:14;;;;;;;14.18;4.97;;;20.30;77.60;;;;;;4995784;28;20022;-63
2022/03/27 12:44:00;;;;;;;16.75;5.00;;;20.20;76.90;;;;;;4993765;28;20049;-63
2022/03/27 12:46:26;;;;;;;15.95;5.53;;;20.20;76.00;;;;;;4994823;28;20030;-62
2022/03/27 12:49:08;;;;;;;14.15;5.13;;;20.40;76.30;;;;;;4991600;28;20049;-63
2022/03/27 12:51:34;;;;;;;15.63;5.35;;;20.10;76.90;;;;;;5005217;28;20018;-64
2022/03/27 12:54:03;;;;;;;15.57;5.60;;;20.10;76.90;;;;;;4995911;28;20407;-63
2022/03/27 12:56:29;;;;;;;15.93;6.03;;;20.40;77.40;;;;;;4995688;28;20076;-63
2022/03/27 12:58:55;;;;;;;16.35;6.18;;;20.50;76.30;;;;;;4995293;28;20503;-63
2022/03/27 13:01:23;;;;;;;14.95;5.43;;;20.50;76.70;;;;;;4992260;28;20030;-64
2022/03/27 13:04:08;;;;;;;15.20;5.80;;;20.60;77.00;;;;;;4991796;28;20046;-64
2022/03/27 13:06:40;;;;;;;15.25;5.00;;;20.50;75.80;;;;;;5004991;28;20049;-64